createdAt,value
2019-01-19T00:00:24.932Z,198.47
2019-01-19T00:03:06.291Z,226.67
2019-01-19T00:06:12.303Z,228.27
2019-01-19T00:09:07.884Z,212.10
2019-01-19T00:12:04.613Z,237.43
2019-01-19T00:15:08.750Z,228.80
2019-01-19T00:18:16.996Z,222.70
2019-01-19T00:21:08.743Z,222.50
2019-01-19T00:24:27.700Z,244.07
2019-01-19T00:27:36.076Z,222.13
2019-01-19T00:30:36.219Z,226.73
2019-01-19T00:33:51.278Z,220.43
2019-01-19T00:36:51.932Z,221.40
2019-01-19T00:39:59.299Z,203.93
2019-01-19T00:42:54.659Z,199.63
2019-01-19T00:46:01.808Z,189.43
2019-01-19T00:49:09.189Z,184.87
2019-01-19T00:52:16.501Z,184.50
2019-01-19T00:55:23.233Z,181.53
2019-01-19T00:58:27.644Z,176.17
2019-01-19T01:01:29.719Z,171.70
2019-01-19T01:04:43.724Z,156.90
2019-01-19T01:08:05.374Z,156.57
2019-01-19T01:11:25.799Z,149.47
2019-01-19T01:14:31.714Z,143.97
2019-01-19T01:17:18.762Z,121.30
2019-01-19T01:20:32.970Z,107.43
2019-01-19T01:23:19.002Z,98.73
2019-01-19T01:26:54.477Z,104.43
2019-01-19T01:30:13.803Z,101.43
2019-01-19T01:33:16.454Z,91.03
2019-01-19T01:36:25.713Z,82.97
2019-01-19T01:39:31.860Z,95.63
2019-01-19T01:42:50.436Z,91.70
2019-01-19T01:46:13.941Z,99.37
2019-01-19T01:49:21.235Z,87.47
2019-01-19T01:52:44.304Z,95.33
2019-01-19T01:55:39.629Z,104.30
2019-01-19T01:58:28.044Z,89.33
2019-01-19T02:01:35.363Z,96.87
2019-01-19T02:04:55.535Z,84.47
2019-01-19T02:07:55.199Z,75.20
2019-01-19T02:11:00.393Z,65.17
2019-01-19T02:13:52.504Z,74.53
2019-01-19T02:17:08.708Z,73.77
2019-01-19T02:20:10.735Z,77.03
2019-01-19T02:23:16.831Z,80.47
2019-01-19T02:26:34.002Z,73.43
2019-01-19T02:29:53.956Z,67.93
2019-01-19T02:33:20.276Z,69.43
2019-01-19T02:36:55.840Z,70.97
2019-01-19T02:40:06.847Z,56.03
2019-01-19T02:42:47.171Z,73.90
2019-01-19T02:45:54.896Z,73.20
2019-01-19T02:48:50.291Z,65.20
2019-01-19T02:51:41.103Z,57.63
2019-01-19T02:54:54.618Z,56.10
2019-01-19T02:58:14.912Z,58.93
2019-01-19T03:01:26.203Z,57.43
2019-01-19T03:04:34.511Z,51.10
2019-01-19T03:07:35.428Z,53.43
2019-01-19T03:10:47.450Z,47.87
2019-01-19T03:14:03.634Z,49.73
2019-01-19T03:17:03.400Z,48.80
2019-01-19T03:20:17.760Z,46.63
2019-01-19T03:23:30.223Z,44.00
2019-01-19T03:26:36.962Z,44.37
2019-01-19T03:29:34.642Z,47.43
2019-01-19T03:32:46.421Z,45.17
2019-01-19T03:35:39.906Z,52.97
2019-01-19T03:38:33.252Z,48.40
2019-01-19T03:41:36.424Z,46.60
2019-01-19T03:44:37.695Z,44.20
2019-01-19T03:48:09.951Z,47.13
2019-01-19T03:51:24.263Z,47.43
2019-01-19T03:54:20.285Z,46.63
2019-01-19T03:57:14.251Z,48.90
2019-01-19T04:00:13.932Z,49.90
2019-01-19T04:03:23.347Z,54.23
2019-01-19T04:06:49.007Z,51.33
2019-01-19T04:09:51.340Z,48.50
2019-01-19T04:13:04.597Z,45.47
2019-01-19T04:16:30.938Z,44.00
2019-01-19T04:19:37.962Z,41.97
2019-01-19T04:22:30.364Z,41.07
2019-01-19T04:25:30.832Z,42.90
2019-01-19T04:28:03.165Z,43.00
2019-01-19T04:30:33.673Z,46.73
2019-01-19T04:33:04.184Z,50.47
2019-01-19T04:35:34.829Z,50.33
2019-01-19T04:38:05.529Z,54.83
2019-01-19T04:40:35.983Z,53.50
2019-01-19T04:43:06.681Z,57.87
2019-01-19T04:45:37.138Z,56.53
2019-01-19T04:48:07.495Z,51.60
2019-01-19T04:50:38.186Z,50.00
2019-01-19T04:53:08.614Z,49.60
2019-01-19T04:55:38.941Z,48.80
2019-01-19T04:58:09.606Z,46.37
2019-01-19T05:00:40.249Z,48.60
2019-01-19T05:03:10.647Z,45.60
2019-01-19T05:05:40.961Z,45.27
2019-01-19T05:08:11.264Z,43.47
2019-01-19T05:10:42.146Z,41.87
2019-01-19T05:13:12.701Z,43.67
2019-01-19T05:15:43.686Z,46.57
2019-01-19T05:18:14.583Z,45.50
2019-01-19T05:20:45.272Z,47.33
2019-01-19T05:23:15.566Z,50.27
2019-01-19T05:25:45.981Z,45.37
2019-01-19T05:28:16.573Z,44.60
2019-01-19T05:30:46.905Z,43.57
2019-01-19T05:33:17.400Z,43.27
2019-01-19T05:35:48.134Z,42.80
2019-01-19T05:38:18.482Z,45.90
2019-01-19T05:40:48.832Z,44.13
2019-01-19T05:43:19.470Z,44.07
2019-01-19T05:45:49.811Z,44.73
2019-01-19T05:48:21.170Z,43.20
2019-01-19T05:50:51.868Z,46.43
2019-01-19T05:53:22.326Z,46.00
2019-01-19T05:55:52.752Z,42.20
2019-01-19T05:58:23.375Z,46.03
2019-01-19T06:00:54.131Z,44.77
2019-01-19T06:03:24.466Z,46.03
2019-01-19T06:05:55.288Z,45.00
2019-01-19T06:08:25.627Z,41.83
2019-01-19T06:10:56.258Z,41.97
2019-01-19T06:13:26.750Z,43.20
2019-01-19T06:15:57.091Z,42.57
2019-01-19T06:18:29.489Z,45.33
2019-01-19T06:20:59.886Z,47.57
2019-01-19T06:23:30.168Z,47.07
2019-01-19T06:26:00.601Z,48.77
2019-01-19T06:28:31.448Z,53.07
2019-01-19T06:31:01.753Z,53.80
2019-01-19T06:33:32.256Z,51.50
2019-01-19T06:36:02.958Z,52.80
2019-01-19T06:38:33.259Z,51.17
2019-01-19T06:41:04.092Z,58.73
2019-01-19T06:43:34.415Z,56.30
2019-01-19T06:46:05.059Z,51.67
2019-01-19T06:48:35.787Z,52.33
2019-01-19T06:51:06.104Z,51.00
2019-01-19T06:53:36.481Z,231.73
2019-01-19T06:56:07.335Z,72.63
2019-01-19T06:58:37.655Z,65.90
2019-01-19T07:01:07.999Z,66.90
2019-01-19T07:03:39.137Z,69.43
2019-01-19T07:06:09.437Z,57.17
2019-01-19T07:08:40.874Z,57.73
2019-01-19T07:11:11.400Z,60.37
2019-01-19T07:13:42.217Z,65.00
2019-01-19T07:16:12.936Z,65.17
2019-01-19T07:18:43.273Z,62.27
2019-01-19T07:21:13.649Z,66.70
2019-01-19T07:23:44.405Z,82.17
2019-01-19T07:26:14.728Z,75.03
2019-01-19T07:28:45.157Z,75.03
2019-01-19T07:31:15.781Z,80.43
2019-01-19T07:33:46.112Z,91.00
2019-01-19T07:36:16.686Z,100.60
2019-01-19T07:38:47.632Z,124.90
2019-01-19T07:41:18.195Z,117.87
2019-01-19T07:43:48.530Z,289.73
2019-01-19T07:46:19.554Z,278.53
2019-01-19T07:48:49.973Z,171.27
2019-01-19T07:51:20.256Z,123.13
2019-01-19T07:53:51.056Z,164.97
2019-01-19T07:56:21.791Z,130.40
2019-01-19T07:58:52.150Z,108.03
2019-01-19T08:01:22.657Z,120.50
2019-01-19T08:03:53.327Z,135.90
2019-01-19T08:06:23.768Z,118.80
2019-01-19T08:08:54.098Z,98.57
2019-01-19T08:11:24.845Z,101.30
2019-01-19T08:13:55.223Z,93.13
2019-01-19T08:16:25.980Z,89.97
2019-01-19T08:18:56.341Z,79.30
2019-01-19T08:21:26.685Z,90.30
2019-01-19T08:23:57.351Z,89.90
2019-01-19T08:26:27.722Z,79.40
2019-01-19T08:28:58.103Z,71.63
2019-01-19T08:31:28.811Z,73.60
2019-01-19T08:33:59.174Z,73.87
2019-01-19T08:36:29.447Z,80.23
2019-01-19T08:38:59.971Z,72.27
2019-01-19T08:41:30.375Z,85.37
2019-01-19T08:44:03.239Z,77.67
2019-01-19T08:46:33.641Z,74.17
2019-01-19T08:49:04.042Z,82.20
2019-01-19T08:51:34.475Z,82.73
2019-01-19T08:54:04.961Z,75.17
2019-01-19T08:56:35.306Z,73.20
2019-01-19T08:59:06.005Z,71.67
2019-01-19T09:01:36.638Z,62.23
2019-01-19T09:04:06.978Z,58.03
2019-01-19T09:06:37.609Z,55.50
2019-01-19T09:09:08.925Z,53.67
2019-01-19T09:11:39.302Z,49.57
2019-01-19T09:14:10.056Z,51.33
2019-01-19T09:16:41.772Z,46.17
2019-01-19T09:19:13.075Z,49.80
2019-01-19T09:21:43.571Z,51.93
2019-01-19T09:24:21.617Z,52.20
2019-01-19T09:26:52.375Z,52.07
2019-01-19T09:29:22.959Z,54.47
2019-01-19T09:31:53.407Z,47.77
2019-01-19T09:34:23.939Z,48.20
2019-01-19T09:36:54.699Z,45.73
2019-01-19T09:39:24.995Z,42.97
2019-01-19T09:41:56.163Z,39.87
2019-01-19T09:44:26.756Z,38.73
2019-01-19T09:46:57.087Z,38.03
2019-01-19T09:49:28.437Z,36.03
2019-01-19T09:51:58.812Z,33.40
2019-01-19T09:54:31.854Z,29.10
2019-01-19T09:57:02.695Z,33.67
2019-01-19T09:59:33.068Z,34.43
2019-01-19T10:02:03.658Z,33.23
2019-01-19T10:04:34.330Z,36.23
2019-01-19T10:07:04.636Z,36.00
2019-01-19T10:09:34.979Z,37.70
2019-01-19T10:12:05.728Z,38.27
2019-01-19T10:14:36.002Z,46.43
2019-01-19T10:17:07.367Z,43.30
2019-01-19T10:19:37.799Z,43.77
2019-01-19T10:22:08.096Z,50.00
2019-01-19T10:24:38.750Z,51.93
2019-01-19T10:27:09.151Z,51.23
2019-01-19T10:29:39.596Z,54.73
2019-01-19T10:32:10.189Z,58.53
2019-01-19T10:34:40.495Z,56.23
2019-01-19T10:37:10.819Z,53.80
2019-01-19T10:39:41.443Z,57.13
2019-01-19T10:42:11.821Z,58.63
2019-01-19T10:44:42.226Z,53.17
2019-01-19T10:47:13.902Z,58.50
2019-01-19T10:49:44.568Z,58.30
2019-01-19T10:52:14.839Z,62.37
2019-01-19T10:54:45.623Z,63.03
2019-01-19T10:57:15.913Z,58.60
2019-01-19T10:59:46.599Z,59.80
2019-01-19T11:02:17.215Z,61.73
2019-01-19T11:04:47.572Z,61.97
2019-01-19T11:07:18.188Z,60.33
2019-01-19T11:09:48.970Z,61.47
2019-01-19T11:12:19.320Z,69.63
2019-01-19T11:14:49.918Z,80.77
2019-01-19T11:17:20.698Z,86.67
2019-01-19T11:19:51.080Z,105.30
2019-01-19T11:22:21.643Z,104.20
2019-01-19T11:24:52.439Z,104.10
2019-01-19T11:27:22.728Z,107.10
2019-01-19T11:29:53.569Z,111.30
2019-01-19T11:32:23.901Z,108.07
2019-01-19T11:34:54.532Z,108.80
2019-01-19T11:37:25.251Z,106.83
2019-01-19T11:39:55.750Z,106.90
2019-01-19T11:42:26.449Z,105.07
2019-01-19T11:44:57.232Z,104.77
2019-01-19T11:47:27.629Z,102.50
2019-01-19T11:49:57.963Z,95.60
2019-01-19T11:52:28.880Z,97.23
2019-01-19T11:54:59.581Z,101.97
2019-01-19T11:57:29.973Z,106.43
2019-01-19T12:00:00.589Z,104.53
2019-01-19T12:02:36.926Z,101.50
2019-01-19T12:05:03.226Z,106.83
2019-01-19T12:07:33.881Z,94.60
2019-01-19T12:10:05.833Z,96.07
2019-01-19T12:12:36.131Z,94.93
2019-01-19T12:15:09.214Z,93.03
2019-01-19T12:17:39.714Z,90.50
2019-01-19T12:20:16.347Z,91.33
2019-01-19T12:22:46.859Z,92.20
2019-01-19T12:25:19.878Z,88.53
2019-01-19T12:27:50.217Z,88.57
2019-01-19T12:30:22.868Z,87.67
2019-01-19T12:32:53.491Z,88.30
2019-01-19T12:35:24.106Z,91.60
2019-01-19T12:37:55.012Z,90.07
2019-01-19T12:40:26.275Z,96.33
2019-01-19T12:43:01.901Z,91.80
2019-01-19T12:45:44.679Z,94.03
2019-01-19T12:48:15.013Z,92.43
2019-01-19T12:50:45.363Z,90.83
2019-01-19T12:53:16.131Z,86.63
2019-01-19T12:55:46.651Z,92.87
2019-01-19T12:58:17.044Z,91.80
2019-01-19T13:00:47.667Z,90.93
2019-01-19T13:03:18.295Z,94.70
2019-01-19T13:06:12.338Z,91.23
2019-01-19T13:08:42.750Z,91.90
2019-01-19T13:12:06.089Z,92.47
2019-01-19T13:14:41.243Z,91.80
2019-01-19T13:17:44.603Z,91.57
2019-01-19T13:20:28.202Z,93.43
2019-01-19T13:23:50.526Z,94.50
2019-01-19T13:27:04.931Z,90.30
2019-01-19T13:30:28.113Z,94.13
2019-01-19T13:33:28.875Z,90.47
2019-01-19T13:36:52.697Z,90.53
2019-01-19T13:39:59.286Z,95.80
2019-01-19T13:43:10.843Z,94.13
2019-01-19T13:45:50.233Z,97.50
2019-01-19T13:48:56.020Z,103.63
2019-01-19T13:52:12.645Z,98.90
2019-01-19T13:55:08.704Z,102.40
2019-01-19T13:58:18.828Z,99.83
2019-01-19T14:01:27.231Z,97.43
2019-01-19T14:04:12.224Z,102.47
2019-01-19T14:07:22.300Z,104.70
2019-01-19T14:10:20.473Z,103.10
2019-01-19T14:13:28.930Z,104.27
2019-01-19T14:16:22.426Z,96.13
2019-01-19T14:19:36.169Z,91.50
2019-01-19T14:22:29.908Z,91.50
2019-01-19T14:25:23.024Z,91.23
2019-01-19T14:28:49.287Z,92.50
2019-01-19T14:31:48.542Z,95.80
2019-01-19T14:34:38.056Z,92.43
2019-01-19T14:37:55.392Z,87.00
2019-01-19T14:40:36.261Z,92.20
2019-01-19T14:43:47.352Z,91.87
2019-01-19T14:46:59.035Z,93.87
2019-01-19T14:50:09.225Z,90.17
2019-01-19T14:53:28.081Z,90.10
2019-01-19T14:56:48.370Z,89.83
2019-01-19T14:59:51.802Z,89.73
2019-01-19T15:02:58.881Z,92.03
2019-01-19T15:05:56.016Z,96.13
2019-01-19T15:08:53.570Z,93.43
2019-01-19T15:11:52.159Z,94.37
2019-01-19T15:15:18.105Z,90.83
2019-01-19T15:18:41.535Z,96.53
2019-01-19T15:21:52.164Z,90.43
2019-01-19T15:24:36.154Z,99.57
2019-01-19T15:27:39.333Z,98.53
2019-01-19T15:30:53.861Z,105.33
2019-01-19T15:34:01.160Z,101.63
2019-01-19T15:37:03.502Z,99.80
2019-01-19T15:39:56.621Z,103.50
2019-01-19T15:42:58.001Z,117.63
2019-01-19T15:46:24.164Z,115.47
2019-01-19T15:49:20.570Z,123.93
2019-01-19T15:52:20.338Z,123.07
2019-01-19T15:55:29.114Z,142.07
2019-01-19T15:58:58.698Z,146.67
2019-01-19T16:02:18.770Z,149.70
2019-01-19T16:05:35.162Z,150.43
2019-01-19T16:08:29.366Z,141.13
2019-01-19T16:11:45.652Z,144.67
2019-01-19T16:15:18.281Z,140.33
2019-01-19T16:18:44.487Z,184.80
2019-01-19T16:21:48.776Z,229.60
2019-01-19T16:24:57.290Z,199.20
2019-01-19T16:27:55.385Z,215.33
2019-01-19T16:31:08.801Z,213.23
2019-01-19T16:34:09.744Z,225.37
2019-01-19T16:36:58.722Z,145.10
2019-01-19T16:40:00.360Z,143.40
2019-01-19T16:42:51.307Z,146.80
2019-01-19T16:45:49.775Z,137.57
2019-01-19T16:48:51.561Z,133.37
2019-01-19T16:52:13.327Z,132.37
2019-01-19T16:55:08.295Z,112.47
2019-01-19T16:58:07.193Z,111.50
2019-01-19T17:01:36.694Z,127.90
2019-01-19T17:04:34.746Z,158.53
2019-01-19T17:08:04.224Z,141.43
2019-01-19T17:10:48.900Z,147.73
2019-01-19T17:13:47.973Z,136.73
2019-01-19T17:17:04.498Z,130.60
2019-01-19T17:20:11.562Z,136.77
2019-01-19T17:23:25.756Z,139.67
2019-01-19T17:26:55.123Z,146.27
2019-01-19T17:30:21.813Z,152.50
2019-01-19T17:33:21.094Z,114.67
2019-01-19T17:36:29.873Z,117.83
2019-01-19T17:39:57.023Z,84.83
2019-01-19T17:43:10.854Z,103.63
2019-01-19T17:46:25.273Z,39.23
2019-01-19T17:49:19.802Z,18.53
2019-01-19T17:52:16.720Z,16.37
2019-01-19T17:55:29.943Z,19.27
2019-01-19T17:58:27.378Z,14.80
2019-01-19T18:02:09.048Z,13.87
2019-01-19T18:04:53.914Z,12.17
2019-01-19T18:08:05.378Z,12.87
2019-01-19T18:10:55.392Z,14.63
2019-01-19T18:13:58.583Z,13.00
2019-01-19T18:17:14.530Z,16.17
2019-01-19T18:20:00.508Z,13.83
2019-01-19T18:23:27.462Z,14.37
2019-01-19T18:26:44.940Z,16.87
2019-01-19T18:30:00.638Z,14.20
2019-01-19T18:33:14.054Z,14.60
2019-01-19T18:36:26.108Z,14.60
2019-01-19T18:39:09.476Z,14.20
2019-01-19T18:42:03.278Z,15.73
2019-01-19T18:45:03.484Z,15.17
2019-01-19T18:47:46.144Z,16.83
2019-01-19T18:50:50.009Z,17.03
2019-01-19T18:53:59.705Z,17.07
2019-01-19T18:57:17.311Z,15.47
2019-01-19T19:00:40.899Z,17.00
2019-01-19T19:03:45.714Z,18.00
2019-01-19T19:06:50.799Z,16.00
2019-01-19T19:10:03.337Z,17.23
2019-01-19T19:13:14.270Z,17.17
2019-01-19T19:16:07.498Z,14.80
2019-01-19T19:19:09.461Z,16.87
2019-01-19T19:22:28.941Z,26.13
2019-01-19T19:25:33.513Z,22.70
2019-01-19T19:28:54.541Z,18.93
2019-01-19T19:31:50.418Z,18.83
2019-01-19T19:35:01.879Z,18.60
2019-01-19T19:38:18.000Z,18.23
2019-01-19T19:41:05.085Z,17.33
2019-01-19T19:44:23.485Z,17.70
2019-01-19T19:47:40.666Z,18.93
2019-01-19T19:50:56.504Z,20.63
2019-01-19T19:53:26.852Z,22.67
2019-01-19T19:55:55.388Z,20.43
2019-01-19T19:58:26.246Z,21.10
2019-01-19T20:00:56.527Z,22.50
2019-01-19T20:03:27.008Z,22.97
2019-01-19T20:05:57.785Z,22.10
2019-01-19T20:08:28.116Z,21.73
2019-01-19T20:10:58.903Z,23.67
2019-01-19T20:13:29.806Z,26.33
2019-01-19T20:16:00.166Z,26.50
2019-01-19T20:18:30.904Z,26.00
2019-01-19T20:21:01.616Z,26.73
2019-01-19T20:23:33.257Z,27.70
2019-01-19T20:26:03.788Z,28.00
2019-01-19T20:28:34.159Z,27.57
2019-01-19T20:31:04.577Z,28.47
2019-01-19T20:33:35.352Z,29.47
2019-01-19T20:36:06.068Z,29.37
2019-01-19T20:38:37.316Z,28.77
2019-01-19T20:41:07.713Z,29.70
2019-01-19T20:43:38.223Z,30.63
2019-01-19T20:46:08.548Z,30.20
2019-01-19T20:48:39.473Z,30.47
2019-01-19T20:51:10.024Z,29.90
2019-01-19T20:53:40.681Z,30.83
2019-01-19T20:56:11.023Z,30.80
2019-01-19T20:58:41.590Z,31.97
2019-01-19T21:01:12.068Z,30.40
2019-01-19T21:03:42.587Z,31.17
2019-01-19T21:06:12.916Z,31.60
2019-01-19T21:08:43.787Z,32.23
2019-01-19T21:11:14.158Z,30.70
2019-01-19T21:13:44.498Z,31.20
2019-01-19T21:16:15.150Z,31.60
2019-01-19T21:18:45.942Z,32.00
2019-01-19T21:21:17.392Z,34.63
2019-01-19T21:23:47.949Z,35.30
2019-01-19T21:26:18.584Z,33.97
2019-01-19T21:28:49.627Z,33.00
2019-01-19T21:31:20.264Z,33.30
2019-01-19T21:33:50.574Z,35.53
2019-01-19T21:36:21.326Z,34.77
2019-01-19T21:38:51.721Z,35.87
2019-01-19T21:41:22.041Z,35.03
2019-01-19T21:43:52.502Z,36.67
2019-01-19T21:46:23.101Z,36.57
2019-01-19T21:48:53.438Z,37.17
2019-01-19T21:51:23.853Z,39.13
2019-01-19T21:53:54.625Z,40.03
2019-01-19T21:56:24.977Z,36.83
2019-01-19T21:58:55.381Z,36.90
2019-01-19T22:01:26.063Z,39.83
2019-01-19T22:03:56.623Z,37.77
2019-01-19T22:06:27.133Z,41.07
2019-01-19T22:08:57.807Z,39.57
2019-01-19T22:11:28.227Z,38.37
2019-01-19T22:13:58.762Z,36.33
2019-01-19T22:16:29.384Z,35.83
2019-01-19T22:19:01.085Z,37.30
2019-01-19T22:21:31.933Z,37.07
2019-01-19T22:24:02.732Z,37.90
2019-01-19T22:26:33.869Z,37.90
2019-01-19T22:29:04.798Z,37.87
2019-01-19T22:31:35.467Z,36.10
2019-01-19T22:34:06.123Z,35.93
2019-01-19T22:36:37.591Z,36.80
2019-01-19T22:39:08.820Z,37.07
2019-01-19T22:41:39.378Z,35.43
2019-01-19T22:44:10.142Z,36.73
2019-01-19T22:46:40.914Z,35.90
2019-01-19T22:49:11.691Z,37.97
2019-01-19T22:51:42.473Z,37.60
2019-01-19T22:54:12.980Z,38.03
2019-01-19T22:56:43.535Z,36.13
2019-01-19T22:59:14.125Z,36.40
2019-01-19T23:01:51.982Z,36.17
2019-01-19T23:04:22.676Z,36.77
2019-01-19T23:06:53.269Z,37.67
2019-01-19T23:09:23.637Z,36.80
2019-01-19T23:11:54.213Z,38.83
2019-01-19T23:14:25.361Z,36.33
2019-01-19T23:16:56.064Z,40.03
2019-01-19T23:19:26.645Z,36.30
2019-01-19T23:21:57.429Z,38.70
2019-01-19T23:24:28.046Z,37.33
2019-01-19T23:27:05.099Z,39.93
2019-01-19T23:29:35.758Z,40.03
2019-01-19T23:32:06.555Z,35.83
2019-01-19T23:34:37.129Z,38.00
2019-01-19T23:37:07.469Z,38.57
2019-01-19T23:39:37.760Z,36.80
2019-01-19T23:42:08.654Z,36.83
2019-01-19T23:44:39.111Z,37.70
2019-01-19T23:47:09.854Z,36.37
2019-01-19T23:49:40.602Z,37.67
2019-01-19T23:52:11.482Z,36.93
2019-01-19T23:54:42.891Z,36.10
2019-01-19T23:57:13.690Z,37.63
2019-01-19T23:59:44.310Z,38.43
